Capitol Logistics 512


RJAA
Tokyo-Narita International Airport
Tokyo, JP
RKSI
Incheon International Airport
Seoul, KR

Activity Log

Date Flight Route Aircraft Duration
02/09/2019 CPX712 CHINO Y16 SAPRA G585 CUN B763 2h 25m

Route Details

Aircraft Information
Primary: Boeing 767-300BDSF
Backup: Not Available
Route Data
Distance: 680nm
Sched. Duration: 2h 00m
Avg. Duration: 2h 25m (+26m)
Times Flown: 1
Recm'd Route: SOUKA Y16 SAPRA Y685 SEL SEL1T
Planned Altitude: 38,000ft
Origin Wx: RJAA 151900Z 02007KT 5000 -RA BR FEW003 BKN004 17/17 Q1004 TEMPO 4000 -RA BR
Dest. Wx: RKSI 151900Z 21004KT 9999 SCT040 20/16 Q1006 NOSIG
Notes:

Financial History
Total Freight: 123,347lbs
Average Load: 123,347lbs/flt
Fuel Used: 30,646lbs
Avg. Fuel Used: 30,646lbs/flt
Fuel Expense: $24,517
Avg. Fuel Expense: $24,517
Avg. Fuel Cost: $0.80/lbs
Total Gross Income: $123,347
Pilot Pay: $229
Total Expenses: $13,373
Total Revenue: $84,875
Average Revenue: $123,347.00